Sugar Bush, Minnesota
Current Conditions -  °F | °C
As of 3:53 PM on Friday 24 Oct 2014 (Local Time) from KBJI Reporting Station
Clear Clear  
Wind Chill: 71°   Ceiling: Unl
Heat Index: 71°   Visibility: 10mi
Dew Point: 40°   Wind: 17mph
Humidity: 33%   Direction: 250°WSW
Pressure: 29.74"   Gusts: 21mph
Location:  47.5271°N, 94.7611°W
Report Text: KBJI 242053Z AUTO 25015G18KT 10SM CLR 22/05 A2974 RMK AO2 T02180046
Loading
Personal Weather Stations






























Interactive Weather Map
Tropical Storm Tracking
New forecast layout! Learn more

10-Day Weather Forecast

Advertisements
Track Severe Weather on mobile